sensor_id;sensor_type;location;lat;lon;timestamp;P1;durP1;ratioP1;P2;durP2;ratioP2
10299;SDS011;5195;48.562;9.192;2023-12-29T00:00:00;1.80;;;1.63;;
10299;SDS011;5195;48.562;9.192;2023-12-29T00:02:25;2.00;;;1.90;;
10299;SDS011;5195;48.562;9.192;2023-12-29T00:04:51;1.98;;;1.87;;
10299;SDS011;5195;48.562;9.192;2023-12-29T00:07:16;1.83;;;1.73;;
10299;SDS011;5195;48.562;9.192;2023-12-29T00:09:42;1.73;;;1.63;;
10299;SDS011;5195;48.562;9.192;2023-12-29T00:12:08;2.03;;;1.93;;
10299;SDS011;5195;48.562;9.192;2023-12-29T00:14:36;2.10;;;2.00;;
10299;SDS011;5195;48.562;9.192;2023-12-29T00:16:59;1.97;;;1.80;;
10299;SDS011;5195;48.562;9.192;2023-12-29T00:19:25;2.10;;;1.90;;
10299;SDS011;5195;48.562;9.192;2023-12-29T00:21:50;1.90;;;1.80;;
10299;SDS011;5195;48.562;9.192;2023-12-29T00:24:16;2.03;;;1.90;;
10299;SDS011;5195;48.562;9.192;2023-12-29T00:26:42;2.17;;;2.08;;
10299;SDS011;5195;48.562;9.192;2023-12-29T00:29:07;2.10;;;2.00;;
10299;SDS011;5195;48.562;9.192;2023-12-29T00:31:33;2.40;;;2.20;;
10299;SDS011;5195;48.562;9.192;2023-12-29T00:33:59;2.17;;;2.08;;
10299;SDS011;5195;48.562;9.192;2023-12-29T00:36:25;1.90;;;1.80;;
10299;SDS011;5195;48.562;9.192;2023-12-29T00:38:50;2.00;;;1.90;;
10299;SDS011;5195;48.562;9.192;2023-12-29T00:41:16;1.83;;;1.73;;
10299;SDS011;5195;48.562;9.192;2023-12-29T00:43:42;2.30;;;2.20;;
10299;SDS011;5195;48.562;9.192;2023-12-29T00:46:07;1.97;;;1.87;;
10299;SDS011;5195;48.562;9.192;2023-12-29T00:48:36;1.97;;;1.87;;
10299;SDS011;5195;48.562;9.192;2023-12-29T00:51:04;2.37;;;2.27;;
10299;SDS011;5195;48.562;9.192;2023-12-29T00:53:30;2.13;;;2.03;;
10299;SDS011;5195;48.562;9.192;2023-12-29T00:55:57;2.20;;;2.10;;
10299;SDS011;5195;48.562;9.192;2023-12-29T00:58:23;2.20;;;2.00;;
10299;SDS011;5195;48.562;9.192;2023-12-29T01:00:50;2.00;;;1.90;;
10299;SDS011;5195;48.562;9.192;2023-12-29T01:03:15;2.53;;;2.43;;
10299;SDS011;5195;48.562;9.192;2023-12-29T01:05:42;2.70;;;2.50;;
10299;SDS011;5195;48.562;9.192;2023-12-29T01:08:07;3.08;;;2.83;;
10299;SDS011;5195;48.562;9.192;2023-12-29T01:10:33;2.47;;;2.27;;
10299;SDS011;5195;48.562;9.192;2023-12-29T01:12:59;2.50;;;2.40;;
10299;SDS011;5195;48.562;9.192;2023-12-29T01:15:25;2.40;;;2.30;;
10299;SDS011;5195;48.562;9.192;2023-12-29T01:17:51;2.23;;;2.13;;
10299;SDS011;5195;48.562;9.192;2023-12-29T01:20:16;2.55;;;2.45;;
10299;SDS011;5195;48.562;9.192;2023-12-29T01:22:42;2.87;;;2.77;;
10299;SDS011;5195;48.562;9.192;2023-12-29T01:25:07;2.33;;;2.23;;
10299;SDS011;5195;48.562;9.192;2023-12-29T01:27:33;2.27;;;2.17;;
10299;SDS011;5195;48.562;9.192;2023-12-29T01:30:00;2.90;;;2.70;;
10299;SDS011;5195;48.562;9.192;2023-12-29T01:32:27;2.77;;;2.67;;
10299;SDS011;5195;48.562;9.192;2023-12-29T01:34:53;2.30;;;2.20;;
10299;SDS011;5195;48.562;9.192;2023-12-29T01:37:18;2.97;;;2.77;;
10299;SDS011;5195;48.562;9.192;2023-12-29T01:39:44;2.83;;;2.62;;
10299;SDS011;5195;48.562;9.192;2023-12-29T01:42:11;2.50;;;2.40;;
10299;SDS011;5195;48.562;9.192;2023-12-29T01:44:37;2.63;;;2.43;;
10299;SDS011;5195;48.562;9.192;2023-12-29T01:47:02;3.20;;;3.00;;
10299;SDS011;5195;48.562;9.192;2023-12-29T01:49:28;2.87;;;2.67;;
10299;SDS011;5195;48.562;9.192;2023-12-29T01:51:57;2.87;;;2.78;;
10299;SDS011;5195;48.562;9.192;2023-12-29T01:54:23;2.57;;;2.47;;
10299;SDS011;5195;48.562;9.192;2023-12-29T01:56:50;2.62;;;2.42;;
10299;SDS011;5195;48.562;9.192;2023-12-29T01:59:16;2.80;;;2.67;;
10299;SDS011;5195;48.562;9.192;2023-12-29T02:01:43;2.77;;;2.57;;
10299;SDS011;5195;48.562;9.192;2023-12-29T02:04:09;2.50;;;2.40;;
10299;SDS011;5195;48.562;9.192;2023-12-29T02:06:34;2.60;;;2.40;;
10299;SDS011;5195;48.562;9.192;2023-12-29T02:09:01;2.33;;;2.20;;
10299;SDS011;5195;48.562;9.192;2023-12-29T02:11:27;2.50;;;2.40;;
10299;SDS011;5195;48.562;9.192;2023-12-29T02:13:52;3.07;;;2.87;;
10299;SDS011;5195;48.562;9.192;2023-12-29T02:16:30;2.90;;;2.70;;
10299;SDS011;5195;48.562;9.192;2023-12-29T02:19:00;3.87;;;2.50;;
10299;SDS011;5195;48.562;9.192;2023-12-29T02:21:25;2.63;;;2.53;;
10299;SDS011;5195;48.562;9.192;2023-12-29T02:23:51;2.90;;;2.70;;
10299;SDS011;5195;48.562;9.192;2023-12-29T02:26:16;2.65;;;2.45;;
10299;SDS011;5195;48.562;9.192;2023-12-29T02:28:44;2.83;;;2.62;;
10299;SDS011;5195;48.562;9.192;2023-12-29T02:31:14;3.00;;;2.80;;
10299;SDS011;5195;48.562;9.192;2023-12-29T02:33:40;2.43;;;2.33;;
10299;SDS011;5195;48.562;9.192;2023-12-29T02:36:06;2.33;;;2.22;;
10299;SDS011;5195;48.562;9.192;2023-12-29T02:38:33;2.50;;;2.30;;
10299;SDS011;5195;48.562;9.192;2023-12-29T02:40:58;2.20;;;2.10;;
10299;SDS011;5195;48.562;9.192;2023-12-29T02:43:25;2.70;;;2.60;;
10299;SDS011;5195;48.562;9.192;2023-12-29T02:45:51;3.07;;;2.87;;
10299;SDS011;5195;48.562;9.192;2023-12-29T02:48:18;3.03;;;2.90;;
10299;SDS011;5195;48.562;9.192;2023-12-29T02:50:43;3.05;;;2.85;;
10299;SDS011;5195;48.562;9.192;2023-12-29T02:53:10;2.80;;;2.60;;
10299;SDS011;5195;48.562;9.192;2023-12-29T02:55:36;2.65;;;2.45;;
10299;SDS011;5195;48.562;9.192;2023-12-29T02:58:02;2.37;;;2.27;;
10299;SDS011;5195;48.562;9.192;2023-12-29T03:00:29;2.57;;;2.23;;
10299;SDS011;5195;48.562;9.192;2023-12-29T03:02:57;2.83;;;2.63;;
10299;SDS011;5195;48.562;9.192;2023-12-29T03:05:22;2.45;;;2.30;;
10299;SDS011;5195;48.562;9.192;2023-12-29T03:07:48;2.60;;;2.50;;
10299;SDS011;5195;48.562;9.192;2023-12-29T03:10:14;2.70;;;2.50;;
10299;SDS011;5195;48.562;9.192;2023-12-29T03:12:41;3.00;;;2.70;;
10299;SDS011;5195;48.562;9.192;2023-12-29T03:15:09;2.60;;;2.40;;
10299;SDS011;5195;48.562;9.192;2023-12-29T03:17:35;3.40;;;3.20;;
10299;SDS011;5195;48.562;9.192;2023-12-29T03:20:02;3.20;;;3.00;;
10299;SDS011;5195;48.562;9.192;2023-12-29T03:22:26;2.47;;;2.37;;
10299;SDS011;5195;48.562;9.192;2023-12-29T03:24:52;2.43;;;2.33;;
10299;SDS011;5195;48.562;9.192;2023-12-29T03:27:18;2.47;;;2.37;;
10299;SDS011;5195;48.562;9.192;2023-12-29T03:29:44;2.90;;;2.70;;
10299;SDS011;5195;48.562;9.192;2023-12-29T03:32:09;2.80;;;2.60;;
10299;SDS011;5195;48.562;9.192;2023-12-29T03:34:36;2.58;;;1.98;;
10299;SDS011;5195;48.562;9.192;2023-12-29T03:37:01;2.57;;;2.47;;
10299;SDS011;5195;48.562;9.192;2023-12-29T03:39:27;3.10;;;2.80;;
10299;SDS011;5195;48.562;9.192;2023-12-29T03:41:52;2.40;;;2.30;;
10299;SDS011;5195;48.562;9.192;2023-12-29T03:44:18;2.22;;;2.12;;
10299;SDS011;5195;48.562;9.192;2023-12-29T03:46:44;2.50;;;2.40;;
10299;SDS011;5195;48.562;9.192;2023-12-29T03:49:09;2.70;;;2.50;;
10299;SDS011;5195;48.562;9.192;2023-12-29T03:51:36;2.80;;;2.70;;
10299;SDS011;5195;48.562;9.192;2023-12-29T03:54:01;3.00;;;2.80;;
10299;SDS011;5195;48.562;9.192;2023-12-29T03:56:27;2.47;;;1.98;;
10299;SDS011;5195;48.562;9.192;2023-12-29T03:58:52;2.30;;;2.20;;
10299;SDS011;5195;48.562;9.192;2023-12-29T04:01:18;7.30;;;2.22;;
10299;SDS011;5195;48.562;9.192;2023-12-29T04:03:44;3.00;;;2.00;;
10299;SDS011;5195;48.562;9.192;2023-12-29T04:06:09;2.50;;;2.30;;
10299;SDS011;5195;48.562;9.192;2023-12-29T04:08:36;2.10;;;2.00;;
10299;SDS011;5195;48.562;9.192;2023-12-29T04:11:03;2.22;;;2.12;;
10299;SDS011;5195;48.562;9.192;2023-12-29T04:13:28;2.20;;;2.10;;
10299;SDS011;5195;48.562;9.192;2023-12-29T04:15:55;2.10;;;2.00;;
10299;SDS011;5195;48.562;9.192;2023-12-29T04:18:23;1.87;;;1.77;;
10299;SDS011;5195;48.562;9.192;2023-12-29T04:20:48;1.80;;;1.80;;
10299;SDS011;5195;48.562;9.192;2023-12-29T04:23:13;2.57;;;2.37;;
10299;SDS011;5195;48.562;9.192;2023-12-29T04:25:40;2.42;;;2.33;;
10299;SDS011;5195;48.562;9.192;2023-12-29T04:28:08;2.30;;;2.10;;
10299;SDS011;5195;48.562;9.192;2023-12-29T04:30:34;2.33;;;2.17;;
10299;SDS011;5195;48.562;9.192;2023-12-29T04:33:00;2.50;;;2.40;;
10299;SDS011;5195;48.562;9.192;2023-12-29T04:35:27;2.40;;;2.30;;
10299;SDS011;5195;48.562;9.192;2023-12-29T04:37:53;2.50;;;2.40;;
10299;SDS011;5195;48.562;9.192;2023-12-29T04:40:19;2.50;;;2.30;;
10299;SDS011;5195;48.562;9.192;2023-12-29T04:42:44;2.03;;;1.92;;
10299;SDS011;5195;48.562;9.192;2023-12-29T04:45:11;2.50;;;2.40;;
10299;SDS011;5195;48.562;9.192;2023-12-29T04:47:38;2.73;;;2.50;;
10299;SDS011;5195;48.562;9.192;2023-12-29T04:50:03;2.70;;;2.50;;
10299;SDS011;5195;48.562;9.192;2023-12-29T04:52:33;2.40;;;2.30;;
10299;SDS011;5195;48.562;9.192;2023-12-29T04:54:59;2.73;;;2.50;;
10299;SDS011;5195;48.562;9.192;2023-12-29T04:57:27;2.40;;;2.30;;
10299;SDS011;5195;48.562;9.192;2023-12-29T04:59:53;2.33;;;2.20;;
10299;SDS011;5195;48.562;9.192;2023-12-29T05:02:18;2.28;;;2.03;;
10299;SDS011;5195;48.562;9.192;2023-12-29T05:04:45;2.33;;;2.22;;
10299;SDS011;5195;48.562;9.192;2023-12-29T05:07:11;2.50;;;2.40;;
10299;SDS011;5195;48.562;9.192;2023-12-29T05:09:36;2.42;;;2.15;;
10299;SDS011;5195;48.562;9.192;2023-12-29T05:12:02;2.60;;;1.92;;
10299;SDS011;5195;48.562;9.192;2023-12-29T05:14:28;2.03;;;1.92;;
10299;SDS011;5195;48.562;9.192;2023-12-29T05:16:53;2.60;;;2.50;;
10299;SDS011;5195;48.562;9.192;2023-12-29T05:19:20;2.70;;;2.50;;
10299;SDS011;5195;48.562;9.192;2023-12-29T05:21:46;2.10;;;2.00;;
10299;SDS011;5195;48.562;9.192;2023-12-29T05:24:12;2.50;;;2.30;;
10299;SDS011;5195;48.562;9.192;2023-12-29T05:26:37;2.47;;;2.37;;
10299;SDS011;5195;48.562;9.192;2023-12-29T05:29:03;2.40;;;2.28;;
10299;SDS011;5195;48.562;9.192;2023-12-29T05:31:28;2.60;;;2.40;;
10299;SDS011;5195;48.562;9.192;2023-12-29T05:33:55;1.85;;;1.85;;
10299;SDS011;5195;48.562;9.192;2023-12-29T05:36:19;2.47;;;2.28;;
10299;SDS011;5195;48.562;9.192;2023-12-29T05:38:45;2.60;;;2.40;;
10299;SDS011;5195;48.562;9.192;2023-12-29T05:41:13;2.10;;;1.87;;
10299;SDS011;5195;48.562;9.192;2023-12-29T05:43:38;2.43;;;2.33;;
10299;SDS011;5195;48.562;9.192;2023-12-29T05:46:06;2.40;;;2.30;;
10299;SDS011;5195;48.562;9.192;2023-12-29T05:48:29;2.47;;;2.37;;
10299;SDS011;5195;48.562;9.192;2023-12-29T05:50:55;2.73;;;2.63;;
10299;SDS011;5195;48.562;9.192;2023-12-29T05:53:21;2.40;;;2.20;;
10299;SDS011;5195;48.562;9.192;2023-12-29T05:55:46;2.77;;;2.57;;
10299;SDS011;5195;48.562;9.192;2023-12-29T05:58:12;2.53;;;2.43;;
10299;SDS011;5195;48.562;9.192;2023-12-29T06:00:37;2.80;;;2.60;;
10299;SDS011;5195;48.562;9.192;2023-12-29T06:03:03;2.53;;;2.35;;
10299;SDS011;5195;48.562;9.192;2023-12-29T06:05:29;2.60;;;2.40;;
10299;SDS011;5195;48.562;9.192;2023-12-29T06:07:54;2.43;;;2.33;;
10299;SDS011;5195;48.562;9.192;2023-12-29T06:10:20;2.13;;;1.87;;
10299;SDS011;5195;48.562;9.192;2023-12-29T06:12:47;2.50;;;2.30;;
10299;SDS011;5195;48.562;9.192;2023-12-29T06:15:13;2.30;;;2.20;;
10299;SDS011;5195;48.562;9.192;2023-12-29T06:17:39;2.33;;;2.23;;
10299;SDS011;5195;48.562;9.192;2023-12-29T06:20:05;2.60;;;2.50;;
10299;SDS011;5195;48.562;9.192;2023-12-29T06:22:30;2.17;;;2.00;;
10299;SDS011;5195;48.562;9.192;2023-12-29T06:24:56;2.30;;;2.10;;
10299;SDS011;5195;48.562;9.192;2023-12-29T06:27:22;2.03;;;1.92;;
10299;SDS011;5195;48.562;9.192;2023-12-29T06:29:47;2.30;;;2.20;;
10299;SDS011;5195;48.562;9.192;2023-12-29T06:32:14;2.20;;;2.10;;
10299;SDS011;5195;48.562;9.192;2023-12-29T06:34:40;2.30;;;2.20;;
10299;SDS011;5195;48.562;9.192;2023-12-29T06:37:05;2.37;;;2.20;;
10299;SDS011;5195;48.562;9.192;2023-12-29T06:39:31;2.10;;;1.92;;
10299;SDS011;5195;48.562;9.192;2023-12-29T06:41:56;2.35;;;1.83;;
10299;SDS011;5195;48.562;9.192;2023-12-29T06:44:23;1.80;;;1.70;;
10299;SDS011;5195;48.562;9.192;2023-12-29T06:46:50;2.30;;;2.20;;
10299;SDS011;5195;48.562;9.192;2023-12-29T06:49:16;2.10;;;2.00;;
10299;SDS011;5195;48.562;9.192;2023-12-29T06:51:41;2.05;;;1.95;;
10299;SDS011;5195;48.562;9.192;2023-12-29T06:54:08;2.20;;;2.10;;
10299;SDS011;5195;48.562;9.192;2023-12-29T06:56:33;2.50;;;2.40;;
10299;SDS011;5195;48.562;9.192;2023-12-29T06:59:00;2.37;;;2.27;;
10299;SDS011;5195;48.562;9.192;2023-12-29T07:01:26;2.30;;;2.20;;
10299;SDS011;5195;48.562;9.192;2023-12-29T07:03:55;2.10;;;2.00;;
10299;SDS011;5195;48.562;9.192;2023-12-29T07:06:20;1.97;;;1.83;;
10299;SDS011;5195;48.562;9.192;2023-12-29T07:08:46;2.43;;;2.27;;
10299;SDS011;5195;48.562;9.192;2023-12-29T07:11:12;2.30;;;2.20;;
10299;SDS011;5195;48.562;9.192;2023-12-29T07:13:39;2.30;;;2.10;;
10299;SDS011;5195;48.562;9.192;2023-12-29T07:16:04;1.90;;;1.80;;
10299;SDS011;5195;48.562;9.192;2023-12-29T07:18:31;1.63;;;1.63;;
10299;SDS011;5195;48.562;9.192;2023-12-29T07:20:57;2.13;;;2.03;;
10299;SDS011;5195;48.562;9.192;2023-12-29T07:23:22;1.80;;;1.70;;
10299;SDS011;5195;48.562;9.192;2023-12-29T07:25:48;2.30;;;2.20;;
10299;SDS011;5195;48.562;9.192;2023-12-29T07:28:16;2.07;;;1.90;;
10299;SDS011;5195;48.562;9.192;2023-12-29T07:30:42;2.50;;;2.30;;
10299;SDS011;5195;48.562;9.192;2023-12-29T07:33:07;2.30;;;2.20;;
10299;SDS011;5195;48.562;9.192;2023-12-29T07:35:36;2.10;;;2.00;;
10299;SDS011;5195;48.562;9.192;2023-12-29T07:38:02;2.10;;;2.00;;
10299;SDS011;5195;48.562;9.192;2023-12-29T07:40:28;1.87;;;1.77;;
10299;SDS011;5195;48.562;9.192;2023-12-29T07:42:53;2.20;;;2.10;;
10299;SDS011;5195;48.562;9.192;2023-12-29T07:45:19;2.40;;;2.20;;
10299;SDS011;5195;48.562;9.192;2023-12-29T07:47:45;2.10;;;2.00;;
10299;SDS011;5195;48.562;9.192;2023-12-29T07:50:11;2.20;;;2.10;;
10299;SDS011;5195;48.562;9.192;2023-12-29T07:52:39;4.30;;;4.00;;
10299;SDS011;5195;48.562;9.192;2023-12-29T07:55:05;4.72;;;4.32;;
10299;SDS011;5195;48.562;9.192;2023-12-29T07:57:30;5.20;;;4.70;;
10299;SDS011;5195;48.562;9.192;2023-12-29T07:59:56;3.35;;;3.15;;
10299;SDS011;5195;48.562;9.192;2023-12-29T08:02:21;2.80;;;2.70;;
10299;SDS011;5195;48.562;9.192;2023-12-29T08:04:48;2.50;;;2.40;;
10299;SDS011;5195;48.562;9.192;2023-12-29T08:07:14;3.67;;;3.47;;
10299;SDS011;5195;48.562;9.192;2023-12-29T08:09:40;3.40;;;3.20;;
10299;SDS011;5195;48.562;9.192;2023-12-29T08:12:05;3.70;;;3.50;;
10299;SDS011;5195;48.562;9.192;2023-12-29T08:14:32;2.87;;;2.67;;
10299;SDS011;5195;48.562;9.192;2023-12-29T08:16:58;3.73;;;3.53;;
10299;SDS011;5195;48.562;9.192;2023-12-29T08:19:23;4.20;;;3.93;;
10299;SDS011;5195;48.562;9.192;2023-12-29T08:21:50;4.87;;;4.60;;
10299;SDS011;5195;48.562;9.192;2023-12-29T08:24:15;5.87;;;5.47;;
10299;SDS011;5195;48.562;9.192;2023-12-29T08:26:45;6.18;;;5.78;;
10299;SDS011;5195;48.562;9.192;2023-12-29T08:29:10;7.97;;;7.40;;
10299;SDS011;5195;48.562;9.192;2023-12-29T08:31:36;4.10;;;3.87;;
10299;SDS011;5195;48.562;9.192;2023-12-29T08:34:01;5.37;;;4.97;;
10299;SDS011;5195;48.562;9.192;2023-12-29T08:36:30;3.30;;;3.10;;
10299;SDS011;5195;48.562;9.192;2023-12-29T08:38:56;6.20;;;5.90;;
10299;SDS011;5195;48.562;9.192;2023-12-29T08:41:23;3.77;;;3.47;;
10299;SDS011;5195;48.562;9.192;2023-12-29T08:43:49;3.93;;;3.73;;
10299;SDS011;5195;48.562;9.192;2023-12-29T08:46:15;6.62;;;6.05;;
10299;SDS011;5195;48.562;9.192;2023-12-29T08:48:40;5.00;;;4.70;;
10299;SDS011;5195;48.562;9.192;2023-12-29T08:51:06;3.30;;;3.10;;
10299;SDS011;5195;48.562;9.192;2023-12-29T08:53:32;2.83;;;2.73;;
10299;SDS011;5195;48.562;9.192;2023-12-29T08:55:57;2.67;;;2.58;;
10299;SDS011;5195;48.562;9.192;2023-12-29T08:58:23;3.60;;;3.30;;
10299;SDS011;5195;48.562;9.192;2023-12-29T09:00:49;3.65;;;3.35;;
10299;SDS011;5195;48.562;9.192;2023-12-29T09:03:14;3.70;;;3.47;;
10299;SDS011;5195;48.562;9.192;2023-12-29T09:05:40;4.27;;;3.97;;
10299;SDS011;5195;48.562;9.192;2023-12-29T09:08:07;4.43;;;4.20;;
10299;SDS011;5195;48.562;9.192;2023-12-29T09:10:33;5.63;;;5.13;;
10299;SDS011;5195;48.562;9.192;2023-12-29T09:12:59;7.90;;;7.30;;
10299;SDS011;5195;48.562;9.192;2023-12-29T09:15:25;3.70;;;3.37;;
10299;SDS011;5195;48.562;9.192;2023-12-29T09:17:50;7.72;;;7.22;;
10299;SDS011;5195;48.562;9.192;2023-12-29T09:20:16;5.00;;;4.60;;
10299;SDS011;5195;48.562;9.192;2023-12-29T09:22:42;4.47;;;4.17;;
10299;SDS011;5195;48.562;9.192;2023-12-29T09:25:07;4.60;;;4.30;;
10299;SDS011;5195;48.562;9.192;2023-12-29T09:27:35;4.20;;;3.90;;
10299;SDS011;5195;48.562;9.192;2023-12-29T09:30:02;2.33;;;2.22;;
10299;SDS011;5195;48.562;9.192;2023-12-29T09:32:29;2.93;;;2.63;;
10299;SDS011;5195;48.562;9.192;2023-12-29T09:34:55;1.80;;;1.70;;
10299;SDS011;5195;48.562;9.192;2023-12-29T09:37:23;4.00;;;3.70;;
10299;SDS011;5195;48.562;9.192;2023-12-29T09:39:49;4.60;;;4.30;;
10299;SDS011;5195;48.562;9.192;2023-12-29T09:42:19;2.33;;;2.23;;
10299;SDS011;5195;48.562;9.192;2023-12-29T09:44:40;5.87;;;5.47;;
10299;SDS011;5195;48.562;9.192;2023-12-29T09:47:07;5.13;;;4.73;;
10299;SDS011;5195;48.562;9.192;2023-12-29T09:49:37;3.40;;;3.20;;
10299;SDS011;5195;48.562;9.192;2023-12-29T09:52:01;10.23;;;8.67;;
10299;SDS011;5195;48.562;9.192;2023-12-29T09:54:28;7.85;;;7.12;;
10299;SDS011;5195;48.562;9.192;2023-12-29T09:56:53;5.30;;;4.87;;
10299;SDS011;5195;48.562;9.192;2023-12-29T09:59:19;1.50;;;1.40;;
10299;SDS011;5195;48.562;9.192;2023-12-29T10:01:46;1.43;;;1.43;;
10299;SDS011;5195;48.562;9.192;2023-12-29T10:04:12;4.53;;;4.32;;
10299;SDS011;5195;48.562;9.192;2023-12-29T10:06:38;3.50;;;3.30;;
10299;SDS011;5195;48.562;9.192;2023-12-29T10:09:03;3.83;;;3.55;;
10299;SDS011;5195;48.562;9.192;2023-12-29T10:11:28;4.80;;;4.60;;
10299;SDS011;5195;48.562;9.192;2023-12-29T10:14:09;4.37;;;4.17;;
10299;SDS011;5195;48.562;9.192;2023-12-29T10:16:44;4.37;;;4.07;;
10299;SDS011;5195;48.562;9.192;2023-12-29T10:24:56;4.33;;;3.93;;
10299;SDS011;5195;48.562;9.192;2023-12-29T10:27:32;2.80;;;2.70;;
10299;SDS011;5195;48.562;9.192;2023-12-29T10:30:09;2.90;;;2.77;;
10299;SDS011;5195;48.562;9.192;2023-12-29T10:32:43;2.07;;;1.97;;
10299;SDS011;5195;48.562;9.192;2023-12-29T10:35:19;1.92;;;1.83;;
10299;SDS011;5195;48.562;9.192;2023-12-29T10:37:54;2.67;;;2.57;;
10299;SDS011;5195;48.562;9.192;2023-12-29T10:40:30;2.40;;;2.30;;
10299;SDS011;5195;48.562;9.192;2023-12-29T10:43:06;3.92;;;3.72;;
10299;SDS011;5195;48.562;9.192;2023-12-29T10:45:41;2.33;;;2.23;;
10299;SDS011;5195;48.562;9.192;2023-12-29T10:48:21;2.30;;;2.20;;
10299;SDS011;5195;48.562;9.192;2023-12-29T10:50:56;2.20;;;2.10;;
10299;SDS011;5195;48.562;9.192;2023-12-29T10:53:32;1.67;;;1.58;;
10299;SDS011;5195;48.562;9.192;2023-12-29T10:56:17;4.67;;;4.27;;
10299;SDS011;5195;48.562;9.192;2023-12-29T10:58:57;3.10;;;2.90;;
10299;SDS011;5195;48.562;9.192;2023-12-29T11:01:33;3.20;;;2.90;;
10299;SDS011;5195;48.562;9.192;2023-12-29T11:04:08;1.85;;;1.75;;
10299;SDS011;5195;48.562;9.192;2023-12-29T11:06:44;1.07;;;1.07;;
10299;SDS011;5195;48.562;9.192;2023-12-29T11:09:27;1.07;;;0.93;;
10299;SDS011;5195;48.562;9.192;2023-12-29T11:12:07;1.03;;;1.03;;
10299;SDS011;5195;48.562;9.192;2023-12-29T11:14:42;1.20;;;1.20;;
10299;SDS011;5195;48.562;9.192;2023-12-29T11:17:18;0.90;;;0.90;;
10299;SDS011;5195;48.562;9.192;2023-12-29T11:19:54;0.90;;;0.90;;
10299;SDS011;5195;48.562;9.192;2023-12-29T11:22:31;1.10;;;1.00;;
10299;SDS011;5195;48.562;9.192;2023-12-29T11:25:06;1.10;;;1.02;;
10299;SDS011;5195;48.562;9.192;2023-12-29T11:27:42;1.13;;;1.13;;
10299;SDS011;5195;48.562;9.192;2023-12-29T11:30:18;1.13;;;1.13;;
10299;SDS011;5195;48.562;9.192;2023-12-29T11:38:21;1.33;;;1.20;;
10299;SDS011;5195;48.562;9.192;2023-12-29T11:41:19;1.30;;;1.30;;
10299;SDS011;5195;48.562;9.192;2023-12-29T11:43:56;1.05;;;1.05;;
10299;SDS011;5195;48.562;9.192;2023-12-29T11:46:45;1.30;;;1.10;;
10299;SDS011;5195;48.562;9.192;2023-12-29T11:49:21;1.03;;;1.03;;
10299;SDS011;5195;48.562;9.192;2023-12-29T11:51:57;0.90;;;0.90;;
10299;SDS011;5195;48.562;9.192;2023-12-29T11:54:32;1.10;;;1.00;;
10299;SDS011;5195;48.562;9.192;2023-12-29T11:57:08;1.10;;;1.10;;
10299;SDS011;5195;48.562;9.192;2023-12-29T11:59:47;1.20;;;1.20;;
10299;SDS011;5195;48.562;9.192;2023-12-29T12:02:26;1.20;;;1.10;;
10299;SDS011;5195;48.562;9.192;2023-12-29T12:05:02;1.07;;;1.07;;
10299;SDS011;5195;48.562;9.192;2023-12-29T12:12:55;1.40;;;1.40;;
10299;SDS011;5195;48.562;9.192;2023-12-29T12:15:31;1.33;;;1.23;;
10299;SDS011;5195;48.562;9.192;2023-12-29T12:18:10;1.37;;;1.27;;
10299;SDS011;5195;48.562;9.192;2023-12-29T12:20:47;1.20;;;1.20;;
10299;SDS011;5195;48.562;9.192;2023-12-29T12:23:20;1.53;;;1.30;;
10299;SDS011;5195;48.562;9.192;2023-12-29T12:25:57;1.00;;;1.00;;
10299;SDS011;5195;48.562;9.192;2023-12-29T12:28:32;1.20;;;1.10;;
10299;SDS011;5195;48.562;9.192;2023-12-29T12:31:09;1.93;;;0.97;;
10299;SDS011;5195;48.562;9.192;2023-12-29T12:33:52;1.15;;;1.10;;
10299;SDS011;5195;48.562;9.192;2023-12-29T12:36:20;1.15;;;1.10;;
10299;SDS011;5195;48.562;9.192;2023-12-29T12:38:56;8.67;;;1.93;;
10299;SDS011;5195;48.562;9.192;2023-12-29T12:41:32;1.15;;;0.90;;
10299;SDS011;5195;48.562;9.192;2023-12-29T12:44:12;1.17;;;0.90;;
10299;SDS011;5195;48.562;9.192;2023-12-29T12:46:51;0.70;;;0.70;;
10299;SDS011;5195;48.562;9.192;2023-12-29T12:49:23;1.10;;;1.00;;
10299;SDS011;5195;48.562;9.192;2023-12-29T12:51:59;1.20;;;1.20;;
10299;SDS011;5195;48.562;9.192;2023-12-29T12:54:34;1.52;;;1.10;;
10299;SDS011;5195;48.562;9.192;2023-12-29T12:57:10;1.87;;;1.20;;
10299;SDS011;5195;48.562;9.192;2023-12-29T12:59:46;1.00;;;1.00;;
10299;SDS011;5195;48.562;9.192;2023-12-29T13:02:21;1.10;;;1.00;;
10299;SDS011;5195;48.562;9.192;2023-12-29T13:04:56;0.80;;;0.80;;
10299;SDS011;5195;48.562;9.192;2023-12-29T13:07:33;0.90;;;0.90;;
10299;SDS011;5195;48.562;9.192;2023-12-29T13:10:08;1.00;;;1.00;;
10299;SDS011;5195;48.562;9.192;2023-12-29T13:12:52;0.97;;;0.97;;
10299;SDS011;5195;48.562;9.192;2023-12-29T13:15:20;0.93;;;0.93;;
10299;SDS011;5195;48.562;9.192;2023-12-29T13:17:57;0.90;;;0.90;;
10299;SDS011;5195;48.562;9.192;2023-12-29T13:20:42;0.67;;;0.67;;
10299;SDS011;5195;48.562;9.192;2023-12-29T13:23:08;1.63;;;0.87;;
10299;SDS011;5195;48.562;9.192;2023-12-29T13:25:43;1.10;;;1.10;;
10299;SDS011;5195;48.562;9.192;2023-12-29T13:28:19;0.90;;;0.90;;
10299;SDS011;5195;48.562;9.192;2023-12-29T13:30:57;1.27;;;1.17;;
10299;SDS011;5195;48.562;9.192;2023-12-29T13:33:42;1.10;;;1.08;;
10299;SDS011;5195;48.562;9.192;2023-12-29T13:36:24;1.07;;;0.90;;
10299;SDS011;5195;48.562;9.192;2023-12-29T13:39:22;1.00;;;1.00;;
10299;SDS011;5195;48.562;9.192;2023-12-29T13:41:50;1.20;;;1.20;;
10299;SDS011;5195;48.562;9.192;2023-12-29T13:44:26;0.95;;;0.95;;
10299;SDS011;5195;48.562;9.192;2023-12-29T13:47:02;2.47;;;0.90;;
10299;SDS011;5195;48.562;9.192;2023-12-29T13:49:37;1.20;;;1.10;;
10299;SDS011;5195;48.562;9.192;2023-12-29T13:52:13;1.03;;;0.70;;
10299;SDS011;5195;48.562;9.192;2023-12-29T13:54:48;0.90;;;0.90;;
10299;SDS011;5195;48.562;9.192;2023-12-29T13:57:35;1.17;;;1.03;;
10299;SDS011;5195;48.562;9.192;2023-12-29T14:00:17;0.88;;;0.88;;
10299;SDS011;5195;48.562;9.192;2023-12-29T14:08:16;0.80;;;0.80;;
10299;SDS011;5195;48.562;9.192;2023-12-29T14:10:46;1.33;;;1.23;;
10299;SDS011;5195;48.562;9.192;2023-12-29T14:13:21;1.20;;;1.20;;
10299;SDS011;5195;48.562;9.192;2023-12-29T14:15:57;1.00;;;1.00;;
10299;SDS011;5195;48.562;9.192;2023-12-29T14:21:30;1.12;;;1.12;;
10299;SDS011;5195;48.562;9.192;2023-12-29T14:24:12;1.27;;;1.17;;
10299;SDS011;5195;48.562;9.192;2023-12-29T14:26:55;1.50;;;1.40;;
10299;SDS011;5195;48.562;9.192;2023-12-29T14:29:29;2.30;;;1.33;;
10299;SDS011;5195;48.562;9.192;2023-12-29T14:32:05;1.10;;;1.10;;
10299;SDS011;5195;48.562;9.192;2023-12-29T14:34:40;1.50;;;1.17;;
10299;SDS011;5195;48.562;9.192;2023-12-29T14:37:16;1.52;;;1.42;;
10299;SDS011;5195;48.562;9.192;2023-12-29T14:39:52;1.57;;;1.50;;
10299;SDS011;5195;48.562;9.192;2023-12-29T14:42:28;1.50;;;1.40;;
10299;SDS011;5195;48.562;9.192;2023-12-29T14:45:04;1.27;;;1.20;;
10299;SDS011;5195;48.562;9.192;2023-12-29T14:47:40;1.25;;;1.20;;
10299;SDS011;5195;48.562;9.192;2023-12-29T14:50:15;1.00;;;1.00;;
10299;SDS011;5195;48.562;9.192;2023-12-29T14:52:51;1.20;;;1.20;;
10299;SDS011;5195;48.562;9.192;2023-12-29T14:55:27;1.50;;;1.40;;
10299;SDS011;5195;48.562;9.192;2023-12-29T14:58:02;1.20;;;1.20;;
10299;SDS011;5195;48.562;9.192;2023-12-29T15:00:38;1.30;;;1.20;;
10299;SDS011;5195;48.562;9.192;2023-12-29T15:03:13;1.53;;;1.40;;
10299;SDS011;5195;48.562;9.192;2023-12-29T15:05:49;1.57;;;1.00;;
10299;SDS011;5195;48.562;9.192;2023-12-29T15:08:26;1.13;;;1.10;;
10299;SDS011;5195;48.562;9.192;2023-12-29T15:11:02;1.50;;;1.40;;
10299;SDS011;5195;48.562;9.192;2023-12-29T15:13:38;1.20;;;1.20;;
10299;SDS011;5195;48.562;9.192;2023-12-29T15:16:13;1.12;;;1.12;;
10299;SDS011;5195;48.562;9.192;2023-12-29T15:18:49;1.27;;;1.27;;
10299;SDS011;5195;48.562;9.192;2023-12-29T15:21:25;1.13;;;1.13;;
10299;SDS011;5195;48.562;9.192;2023-12-29T15:24:00;1.20;;;1.20;;
10299;SDS011;5195;48.562;9.192;2023-12-29T15:26:36;1.40;;;1.30;;
10299;SDS011;5195;48.562;9.192;2023-12-29T15:29:11;1.50;;;1.40;;
10299;SDS011;5195;48.562;9.192;2023-12-29T15:31:47;1.90;;;1.70;;
10299;SDS011;5195;48.562;9.192;2023-12-29T15:34:23;1.48;;;1.40;;
10299;SDS011;5195;48.562;9.192;2023-12-29T15:36:58;1.33;;;1.17;;